Time;durP1;ratioP1;P1;durP2;ratioP2;P2;SDS_P1;SDS_P2;PMS_P1;PMS_P2;Temp;Humidity;BMP_temperature;BMP_pressure;BME280_temperature;BME280_humidity;BME280_pressure;Samples;Min_cycle;Max_cycle;Signal;HPM_P1;HPM_P2
2022/03/25 00:01:41;;;;;;;38.13;22.67;;;12.40;84.00;;;;;;4145660;28;20045;-66
2022/03/25 00:03:42;;;;;;;37.67;22.77;;;12.30;84.60;;;;;;4144162;28;20482;-66
2022/03/25 00:05:42;;;;;;;38.38;21.85;;;12.30;83.10;;;;;;4144054;28;20030;-67
2022/03/25 00:07:43;;;;;;;36.13;21.40;;;12.30;82.80;;;;;;4144888;28;20042;-66
2022/03/25 00:09:44;;;;;;;35.08;22.20;;;12.30;83.70;;;;;;4144820;28;20815;-66
2022/03/25 00:11:44;;;;;;;38.88;22.85;;;12.30;83.30;;;;;;4144545;28;20117;-67
2022/03/25 00:13:45;;;;;;;45.28;22.58;;;12.30;82.40;;;;;;4143599;28;20070;-67
2022/03/25 00:15:45;;;;;;;41.10;23.50;;;12.20;81.70;;;;;;4146124;28;20544;-66
2022/03/25 00:17:46;;;;;;;40.03;23.05;;;12.20;81.70;;;;;;4143713;28;20053;-67
2022/03/25 00:19:47;;;;;;;38.20;23.55;;;12.20;82.60;;;;;;4146421;28;20080;-66
2022/03/25 00:21:48;;;;;;;38.22;22.52;;;12.10;82.30;;;;;;4143638;28;20505;-66
2022/03/25 00:23:48;;;;;;;38.50;23.25;;;12.10;81.90;;;;;;4145314;28;20435;-67
2022/03/25 00:25:49;;;;;;;41.60;23.08;;;12.10;82.00;;;;;;4142523;28;20080;-67
2022/03/25 00:27:49;;;;;;;38.65;23.08;;;12.00;81.90;;;;;;4142703;28;20034;-67
2022/03/25 00:29:50;;;;;;;40.47;24.52;;;12.00;82.70;;;;;;4143677;28;20404;-66
2022/03/25 00:31:51;;;;;;;40.38;24.45;;;12.00;82.10;;;;;;4147053;28;20042;-66
2022/03/25 00:33:51;;;;;;;41.38;24.50;;;12.00;82.40;;;;;;4144453;28;20064;-67
2022/03/25 00:35:52;;;;;;;44.67;24.35;;;12.00;82.90;;;;;;4144041;28;20033;-67
2022/03/25 00:37:52;;;;;;;38.25;23.20;;;11.90;82.80;;;;;;4143952;28;20069;-66
2022/03/25 00:39:53;;;;;;;37.13;24.08;;;11.90;82.90;;;;;;4145142;28;20048;-66
2022/03/25 00:41:54;;;;;;;39.70;23.98;;;11.90;84.30;;;;;;4144291;28;20038;-66
2022/03/25 00:43:54;;;;;;;40.47;24.25;;;11.90;83.60;;;;;;4144779;28;20040;-66
2022/03/25 00:45:55;;;;;;;43.38;25.95;;;11.90;83.60;;;;;;4144501;28;20042;-66
2022/03/25 00:47:56;;;;;;;42.15;25.23;;;11.90;83.50;;;;;;4143307;28;20041;-66
2022/03/25 00:49:57;;;;;;;45.13;25.83;;;11.90;83.60;;;;;;4142797;28;20136;-66
2022/03/25 00:51:58;;;;;;;46.72;26.63;;;11.80;82.90;;;;;;4145416;28;20125;-67
2022/03/25 00:53:59;;;;;;;46.40;26.17;;;11.90;84.10;;;;;;4142232;28;20133;-66
2022/03/25 00:56:01;;;;;;;38.33;24.05;;;11.80;83.80;;;;;;4141413;28;20034;-66
2022/03/25 00:58:01;;;;;;;41.92;25.85;;;11.80;84.10;;;;;;4141633;28;20042;-67
2022/03/25 01:00:03;;;;;;;45.60;25.48;;;11.80;84.70;;;;;;4142463;28;20157;-69
2022/03/25 01:02:04;;;;;;;46.13;26.08;;;11.80;84.70;;;;;;4142811;28;20030;-66
2022/03/25 01:04:04;;;;;;;43.55;25.90;;;11.80;84.10;;;;;;4143721;28;20057;-66
2022/03/25 01:06:05;;;;;;;43.75;25.15;;;11.80;85.50;;;;;;4141533;28;20042;-66
2022/03/25 01:08:07;;;;;;;48.65;26.67;;;11.70;85.60;;;;;;4145712;28;20053;-67
2022/03/25 01:10:08;;;;;;;43.10;26.80;;;11.70;85.60;;;;;;4143421;28;20041;-68
2022/03/25 01:12:09;;;;;;;49.10;27.42;;;11.70;85.20;;;;;;4141985;28;20041;-66
2022/03/25 01:14:09;;;;;;;47.15;28.20;;;11.70;85.90;;;;;;4145020;28;20034;-67
2022/03/25 01:16:10;;;;;;;41.78;25.20;;;11.70;85.80;;;;;;4143833;28;20061;-66
2022/03/25 01:18:10;;;;;;;45.30;27.02;;;11.60;85.60;;;;;;4144681;28;20038;-66
2022/03/25 01:20:11;;;;;;;46.97;28.05;;;11.60;86.10;;;;;;4142371;28;20069;-68
2022/03/25 01:22:12;;;;;;;50.35;28.13;;;11.60;86.10;;;;;;4145140;28;20528;-66
2022/03/25 01:24:12;;;;;;;47.47;28.58;;;11.60;86.10;;;;;;4143538;28;20145;-66
2022/03/25 01:26:13;;;;;;;49.35;27.42;;;11.60;86.60;;;;;;4142827;28;20061;-66
2022/03/25 01:28:14;;;;;;;50.33;28.83;;;11.50;86.50;;;;;;4143597;28;20034;-67
2022/03/25 01:30:15;;;;;;;48.17;27.92;;;11.50;87.10;;;;;;4144933;28;20080;-67
2022/03/25 01:32:16;;;;;;;50.22;28.25;;;11.50;88.00;;;;;;4144802;28;20038;-67
2022/03/25 01:34:16;;;;;;;47.40;28.70;;;11.50;87.40;;;;;;4144098;28;20103;-65
2022/03/25 01:36:19;;;;;;;47.75;28.63;;;11.50;88.10;;;;;;4144524;28;20030;-67
2022/03/25 01:38:20;;;;;;;49.00;29.20;;;11.50;88.60;;;;;;4141735;28;20049;-67
2022/03/25 01:40:21;;;;;;;51.40;29.35;;;11.40;89.90;;;;;;4142782;28;20062;-67
2022/03/25 01:42:36;;;;;;;46.83;28.48;;;11.40;89.70;;;;;;4143324;28;20045;-67
2022/03/25 01:44:37;;;;;;;51.00;29.75;;;11.40;89.50;;;;;;4141801;28;20124;-66
2022/03/25 01:46:37;;;;;;;49.88;28.83;;;11.30;90.20;;;;;;4141720;28;20091;-67
2022/03/25 01:48:38;;;;;;;50.33;29.88;;;11.30;90.00;;;;;;4144767;28;20461;-67
2022/03/25 01:50:41;;;;;;;50.55;31.52;;;11.30;90.30;;;;;;4141802;28;20065;-67
2022/03/25 01:52:42;;;;;;;48.85;30.23;;;11.20;90.20;;;;;;4140031;28;20038;-66
2022/03/25 01:54:42;;;;;;;58.05;32.42;;;11.20;90.30;;;;;;4143946;28;20432;-66
2022/03/25 01:56:43;;;;;;;52.13;31.10;;;11.20;90.30;;;;;;4144509;28;20144;-66
2022/03/25 01:58:45;;;;;;;50.42;29.13;;;11.20;90.40;;;;;;4144913;28;20422;-66
2022/03/25 02:00:46;;;;;;;50.72;29.98;;;11.20;90.80;;;;;;4141377;28;20049;-66
2022/03/25 02:02:47;;;;;;;51.50;30.58;;;11.20;90.80;;;;;;4145270;28;20095;-66
2022/03/25 02:04:48;;;;;;;49.70;30.70;;;11.10;90.90;;;;;;4143307;28;20125;-67
2022/03/25 02:06:49;;;;;;;53.35;30.63;;;11.10;90.90;;;;;;4141211;28;20501;-66
2022/03/25 02:08:50;;;;;;;52.05;31.52;;;11.10;91.50;;;;;;4125952;28;20490;-67
2022/03/25 02:10:51;;;;;;;55.03;31.02;;;11.10;91.50;;;;;;4125031;28;20129;-67
2022/03/25 02:12:51;;;;;;;53.40;31.98;;;11.10;91.60;;;;;;4144312;28;20100;-67
2022/03/25 02:14:52;;;;;;;56.47;33.05;;;11.10;92.00;;;;;;4144727;28;20117;-67
2022/03/25 02:16:53;;;;;;;55.03;31.75;;;11.00;91.90;;;;;;4145728;28;20076;-67
2022/03/25 02:18:54;;;;;;;57.95;33.72;;;11.00;91.80;;;;;;4142389;28;20026;-66
2022/03/25 02:20:55;;;;;;;56.88;33.25;;;11.00;92.10;;;;;;4141956;28;20149;-67
2022/03/25 02:22:56;;;;;;;61.15;33.70;;;11.00;92.00;;;;;;4146531;28;20053;-67
2022/03/25 02:24:56;;;;;;;54.33;32.08;;;10.90;92.10;;;;;;4142219;28;20042;-67
2022/03/25 02:26:58;;;;;;;59.28;33.88;;;10.90;92.40;;;;;;4146290;28;20034;-67
2022/03/25 02:29:00;;;;;;;59.45;33.95;;;10.90;92.50;;;;;;4143450;28;20481;-67
2022/03/25 02:31:01;;;;;;;56.10;33.35;;;10.80;92.70;;;;;;4139033;28;20063;-67
2022/03/25 02:33:02;;;;;;;57.97;33.45;;;10.80;92.90;;;;;;4143434;28;20033;-67
2022/03/25 02:35:04;;;;;;;57.67;34.37;;;10.80;93.80;;;;;;4142230;28;20141;-68
2022/03/25 02:37:05;;;;;;;63.35;34.55;;;10.70;94.00;;;;;;4142740;28;20284;-67
2022/03/25 02:39:07;;;;;;;60.83;35.47;;;10.70;94.60;;;;;;4142219;28;20377;-67
2022/03/25 02:41:08;;;;;;;58.92;34.75;;;10.60;94.60;;;;;;4139265;28;20056;-67
2022/03/25 02:43:11;;;;;;;61.13;35.40;;;10.60;94.90;;;;;;4143624;28;20393;-67
2022/03/25 02:45:11;;;;;;;;;;;10.60;94.70;;;;;;4140840;28;20033;-68
2022/03/25 02:47:12;;;;;;;60.75;35.63;;;10.60;95.20;;;;;;4140188;28;19987;-67
2022/03/25 02:49:13;;;;;;;57.67;34.67;;;10.50;95.70;;;;;;4142713;28;20458;-67
2022/03/25 02:51:14;;;;;;;68.95;36.80;;;10.50;96.00;;;;;;4139587;28;20675;-67
2022/03/25 02:53:15;;;;;;;64.28;36.95;;;10.50;95.70;;;;;;4144565;28;20045;-67
2022/03/25 02:55:15;;;;;;;58.80;35.33;;;10.50;96.30;;;;;;4141590;28;20042;-67
2022/03/25 02:57:16;;;;;;;60.97;34.83;;;10.50;96.60;;;;;;4141256;28;20032;-67
2022/03/25 02:59:16;;;;;;;62.97;36.58;;;10.40;96.60;;;;;;4141490;28;20049;-67
2022/03/25 03:01:18;;;;;;;62.22;36.50;;;10.40;96.60;;;;;;4142664;28;20490;-67
2022/03/25 03:03:19;;;;;;;64.82;36.05;;;10.40;96.60;;;;;;4143755;28;20046;-66
2022/03/25 03:05:21;;;;;;;65.93;36.58;;;10.40;97.60;;;;;;4146641;28;20110;-66
2022/03/25 03:07:21;;;;;;;64.53;36.50;;;10.30;97.70;;;;;;4145782;28;20061;-65
2022/03/25 03:09:22;;;;;;;66.05;37.72;;;10.40;97.40;;;;;;4147529;28;20041;-67
2022/03/25 03:11:23;;;;;;;66.30;38.45;;;10.30;98.50;;;;;;4148992;28;20040;-67
2022/03/25 03:13:24;;;;;;;63.45;36.63;;;10.30;97.80;;;;;;4146347;28;20133;-67
2022/03/25 03:15:25;;;;;;;64.20;37.28;;;10.30;98.00;;;;;;4161705;28;20045;-67
2022/03/25 03:17:27;;;;;;;61.35;35.90;;;10.30;97.90;;;;;;4148189;28;20033;-67
2022/03/25 03:19:27;;;;;;;62.38;36.05;;;10.30;98.10;;;;;;4148509;28;20026;-67
2022/03/25 03:21:29;;;;;;;70.40;38.72;;;10.30;97.80;;;;;;4146670;28;20180;-67
2022/03/25 03:23:30;;;;;;;71.78;37.45;;;10.30;97.70;;;;;;4149439;28;20084;-67
2022/03/25 03:25:31;;;;;;;61.95;36.17;;;10.30;97.50;;;;;;4150790;28;20041;-67
2022/03/25 03:27:31;;;;;;;68.13;38.63;;;10.30;98.00;;;;;;4148417;28;20120;-67
2022/03/25 03:29:32;;;;;;;65.35;37.25;;;10.30;98.10;;;;;;4148371;28;20400;-67
2022/03/25 03:31:33;;;;;;;65.55;37.45;;;10.30;97.60;;;;;;4150070;28;20037;-67
2022/03/25 03:33:33;;;;;;;65.90;37.10;;;10.20;97.70;;;;;;4146234;28;20042;-67
2022/03/25 03:35:34;;;;;;;60.55;36.50;;;10.30;97.50;;;;;;4146389;28;20046;-67
2022/03/25 03:37:46;;;;;;;63.90;37.13;;;10.30;97.30;;;;;;4147746;28;20128;-67
2022/03/25 03:39:47;;;;;;;68.22;38.55;;;10.20;97.20;;;;;;4148447;28;20473;-67
2022/03/25 03:41:47;;;;;;;66.45;37.65;;;10.20;97.10;;;;;;4146515;28;20042;-67
2022/03/25 03:43:48;;;;;;;66.57;37.22;;;10.20;97.40;;;;;;4149666;28;20084;-67
2022/03/25 03:45:49;;;;;;;64.72;37.05;;;10.20;97.40;;;;;;4146558;28;20034;-67
2022/03/25 03:47:49;;;;;;;66.22;37.13;;;10.20;97.10;;;;;;4148092;28;20114;-66
2022/03/25 03:49:50;;;;;;;71.10;38.67;;;10.20;97.30;;;;;;4146848;28;20515;-67
2022/03/25 03:51:50;;;;;;;73.28;40.25;;;10.20;97.10;;;;;;4147239;28;20066;-66
2022/03/25 03:53:51;;;;;;;68.50;37.47;;;10.20;98.20;;;;;;4145121;28;20438;-66
2022/03/25 03:55:51;;;;;;;74.90;38.33;;;10.20;98.30;;;;;;4147441;28;20053;-67
2022/03/25 03:57:52;;;;;;;67.25;38.72;;;10.20;98.60;;;;;;4146971;28;20034;-67
2022/03/25 03:59:53;;;;;;;69.95;39.88;;;10.20;99.10;;;;;;4148905;28;20037;-67
2022/03/25 04:01:53;;;;;;;73.28;39.33;;;10.10;99.00;;;;;;4145940;28;20038;-67
2022/03/25 04:03:54;;;;;;;71.05;39.53;;;10.10;98.80;;;;;;4148031;28;20037;-67
2022/03/25 04:05:54;;;;;;;68.93;40.95;;;10.10;98.50;;;;;;4146748;28;20030;-67
2022/03/25 04:07:55;;;;;;;63.55;37.72;;;10.10;98.70;;;;;;4146299;28;20469;-68
2022/03/25 04:09:56;;;;;;;69.00;38.28;;;10.10;99.40;;;;;;4147532;28;20042;-67
2022/03/25 04:11:57;;;;;;;68.15;37.60;;;10.10;99.00;;;;;;4147221;28;20056;-67
2022/03/25 04:13:57;;;;;;;68.15;38.42;;;10.00;99.30;;;;;;4146821;28;20124;-67
2022/03/25 04:15:58;;;;;;;71.85;37.72;;;10.10;98.70;;;;;;4144614;28;20045;-67
2022/03/25 04:17:58;;;;;;;62.28;36.65;;;10.00;98.80;;;;;;4143256;28;20041;-67
2022/03/25 04:19:59;;;;;;;61.83;36.53;;;10.00;99.00;;;;;;4146523;28;20088;-67
2022/03/25 04:22:00;;;;;;;63.20;36.75;;;10.00;99.30;;;;;;4150636;28;20066;-67
2022/03/25 04:24:00;;;;;;;68.18;37.10;;;10.00;99.20;;;;;;4151845;28;20717;-67
2022/03/25 04:26:02;;;;;;;67.25;38.88;;;10.00;98.60;;;;;;4146568;28;20038;-67
2022/03/25 04:28:03;;;;;;;68.43;38.20;;;10.00;98.70;;;;;;4143105;28;20053;-67
2022/03/25 04:30:04;;;;;;;61.33;35.75;;;10.00;98.80;;;;;;4143870;28;20152;-68
2022/03/25 04:32:06;;;;;;;72.75;39.75;;;10.00;98.80;;;;;;4145117;28;20440;-67
2022/03/25 04:34:07;;;;;;;71.28;39.90;;;9.90;99.00;;;;;;4128529;28;20492;-67
2022/03/25 04:36:08;;;;;;;69.95;39.60;;;9.90;98.60;;;;;;4145209;28;20034;-67
2022/03/25 04:38:09;;;;;;;70.10;40.33;;;9.90;98.90;;;;;;4149790;28;20038;-67
2022/03/25 04:40:18;;;;;;;69.63;38.92;;;9.90;98.60;;;;;;4149574;28;20057;-67
2022/03/25 04:42:19;;;;;;;68.50;39.08;;;9.80;98.70;;;;;;4147791;28;20494;-67
2022/03/25 04:44:19;;;;;;;70.18;40.42;;;9.80;98.50;;;;;;4150115;28;20038;-68
2022/03/25 04:46:20;;;;;;;73.68;39.58;;;9.80;99.00;;;;;;4148058;28;20088;-67
2022/03/25 04:48:20;;;;;;;68.05;38.83;;;9.80;99.20;;;;;;4151669;28;20144;-67
2022/03/25 04:50:22;;;;;;;73.88;39.05;;;9.70;99.10;;;;;;4150425;28;20484;-67
2022/03/25 04:52:22;;;;;;;70.93;39.17;;;9.70;99.10;;;;;;4151020;28;20555;-66
2022/03/25 04:54:23;;;;;;;73.90;41.03;;;9.70;99.20;;;;;;4151654;28;20038;-67
2022/03/25 04:56:23;;;;;;;71.43;40.55;;;9.70;99.00;;;;;;4146522;28;20040;-66
2022/03/25 04:58:24;;;;;;;69.75;39.78;;;9.70;99.20;;;;;;4148635;28;20038;-66
2022/03/25 05:00:26;;;;;;;67.97;38.83;;;9.60;99.30;;;;;;4146436;28;20054;-67
2022/03/25 05:02:27;;;;;;;70.60;38.60;;;9.60;99.50;;;;;;4150848;28;20117;-67
2022/03/25 05:04:28;;;;;;;72.78;38.70;;;9.60;99.50;;;;;;4149412;28;20588;-67
2022/03/25 05:06:28;;;;;;;73.18;40.33;;;9.60;99.70;;;;;;4144897;28;20057;-67
2022/03/25 05:08:29;;;;;;;73.10;40.10;;;9.60;99.90;;;;;;4148736;28;20499;-67
2022/03/25 05:10:30;;;;;;;71.82;39.90;;;9.60;99.90;;;;;;4147494;28;20046;-67
2022/03/25 05:12:30;;;;;;;69.18;37.88;;;9.60;99.90;;;;;;4152817;28;20099;-67
2022/03/25 05:14:31;;;;;;;70.88;39.22;;;9.60;99.90;;;;;;4147367;28;20049;-67
2022/03/25 05:16:32;;;;;;;71.82;38.50;;;9.60;99.90;;;;;;4148350;28;20473;-67
2022/03/25 05:18:33;;;;;;;67.82;37.78;;;9.50;99.90;;;;;;4150886;28;20034;-68
2022/03/25 05:20:33;;;;;;;69.38;38.80;;;9.50;99.90;;;;;;4146539;28;20048;-67
2022/03/25 05:22:34;;;;;;;76.35;41.05;;;9.50;99.90;;;;;;4147228;28;20109;-67
2022/03/25 05:24:34;;;;;;;72.28;39.50;;;9.50;99.90;;;;;;4151908;28;20037;-67
2022/03/25 05:26:35;;;;;;;70.45;39.25;;;9.40;99.90;;;;;;4147973;28;20045;-67
2022/03/25 05:28:36;;;;;;;70.72;39.92;;;9.40;99.90;;;;;;4149726;28;20034;-67
2022/03/25 05:30:36;;;;;;;68.55;39.17;;;9.40;99.90;;;;;;4148003;28;20037;-67
2022/03/25 05:32:38;;;;;;;73.38;40.15;;;9.40;99.90;;;;;;4149552;28;20041;-67
2022/03/25 05:34:39;;;;;;;68.78;38.58;;;9.30;99.90;;;;;;4151704;28;20056;-67
2022/03/25 05:36:39;;;;;;;73.93;39.60;;;9.30;99.90;;;;;;4142307;28;20034;-67
2022/03/25 05:38:40;;;;;;;68.53;37.70;;;9.40;99.90;;;;;;4149683;28;20065;-67
2022/03/25 05:40:41;;;;;;;70.22;38.83;;;9.40;99.90;;;;;;4140666;28;20471;-67
2022/03/25 05:42:42;;;;;;;75.30;40.20;;;9.30;99.90;;;;;;4146241;28;20050;-67
2022/03/25 05:44:42;;;;;;;73.97;40.70;;;9.40;99.90;;;;;;4140920;28;20048;-67
2022/03/25 05:46:43;;;;;;;71.07;39.03;;;9.40;99.90;;;;;;4139378;28;20816;-67
2022/03/25 05:48:44;;;;;;;68.32;38.63;;;9.40;99.90;;;;;;4142012;28;20453;-68
2022/03/25 05:50:45;;;;;;;75.25;40.85;;;9.40;99.90;;;;;;4139998;28;20489;-67
2022/03/25 05:52:46;;;;;;;73.10;40.60;;;9.40;99.90;;;;;;4142112;28;20045;-67
2022/03/25 05:54:46;;;;;;;72.13;39.17;;;9.40;99.90;;;;;;4142440;28;20068;-67
2022/03/25 05:56:47;;;;;;;71.57;40.70;;;9.40;99.90;;;;;;4141318;28;20050;-67
2022/03/25 05:58:47;;;;;;;71.22;39.28;;;9.40;99.90;;;;;;4141556;28;20042;-67
2022/03/25 06:00:48;;;;;;;74.25;40.90;;;9.40;99.90;;;;;;4140694;28;20078;-67
2022/03/25 06:02:48;;;;;;;71.90;40.13;;;9.30;99.90;;;;;;4141912;28;20046;-67
2022/03/25 06:04:49;;;;;;;69.07;39.15;;;9.30;99.90;;;;;;4142193;28;20077;-67
2022/03/25 06:06:50;;;;;;;73.07;41.03;;;9.30;99.90;;;;;;4139902;28;20096;-67
2022/03/25 06:08:51;;;;;;;71.30;40.90;;;9.30;99.90;;;;;;4142168;28;20492;-67
2022/03/25 06:10:51;;;;;;;81.47;44.22;;;9.30;99.90;;;;;;4139275;28;20124;-67
2022/03/25 06:12:52;;;;;;;80.70;42.53;;;9.30;99.90;;;;;;4141420;28;20508;-66
2022/03/25 06:14:52;;;;;;;78.32;43.50;;;9.30;99.90;;;;;;4141701;28;20469;-67
2022/03/25 06:16:53;;;;;;;80.43;43.67;;;9.30;99.90;;;;;;4141325;28;20428;-66
2022/03/25 06:18:55;;;;;;;79.85;43.38;;;9.30;99.90;;;;;;4127464;28;20049;-67
2022/03/25 06:20:56;;;;;;;76.45;44.38;;;9.30;99.90;;;;;;4125386;28;20093;-67
2022/03/25 06:22:57;;;;;;;76.75;42.85;;;9.30;99.90;;;;;;4144677;28;20080;-67
2022/03/25 06:24:58;;;;;;;78.35;43.22;;;9.30;99.90;;;;;;4142589;28;20030;-67
2022/03/25 06:26:58;;;;;;;79.82;43.20;;;9.30;99.90;;;;;;4140795;28;20045;-67
2022/03/25 06:28:59;;;;;;;76.72;42.33;;;9.30;99.90;;;;;;4144015;28;20038;-67
2022/03/25 06:30:59;;;;;;;76.88;43.47;;;9.30;99.90;;;;;;4141269;28;20137;-67
2022/03/25 06:33:02;;;;;;;81.75;43.65;;;9.30;99.90;;;;;;4143856;28;20057;-66
2022/03/25 06:35:02;;;;;;;80.45;42.15;;;9.40;99.90;;;;;;4141256;28;20037;-68
2022/03/25 06:37:04;;;;;;;72.80;43.90;;;9.40;99.90;;;;;;4140432;28;20038;-67
2022/03/25 06:39:05;;;;;;;82.80;45.35;;;9.50;99.90;;;;;;4136469;28;20041;-67
2022/03/25 06:41:06;;;;;;;85.93;48.35;;;9.50;99.90;;;;;;4141025;28;20065;-67
2022/03/25 06:43:07;;;;;;;81.38;46.08;;;9.70;99.90;;;;;;4141964;28;20038;-67
2022/03/25 06:45:09;;;;;;;86.93;47.28;;;9.80;99.90;;;;;;4141585;28;20478;-68
2022/03/25 06:47:10;;;;;;;79.65;45.67;;;9.90;99.90;;;;;;4143741;28;20073;-67
2022/03/25 06:49:10;;;;;;;86.53;47.75;;;10.00;99.90;;;;;;4142607;28;20049;-67
2022/03/25 06:51:11;;;;;;;82.80;46.65;;;10.20;99.90;;;;;;4142108;28;20103;-67
2022/03/25 06:53:13;;;;;;;81.00;47.00;;;10.30;99.90;;;;;;4137656;28;20034;-67
2022/03/25 06:55:14;;;;;;;86.40;48.88;;;10.50;99.90;;;;;;4140169;28;20056;-68
2022/03/25 06:57:15;;;;;;;83.13;47.45;;;10.70;99.90;;;;;;4141630;28;20042;-68
2022/03/25 06:59:16;;;;;;;85.53;49.88;;;10.90;99.90;;;;;;4144766;28;20075;-67
2022/03/25 07:01:17;;;;;;;86.25;49.03;;;11.10;99.90;;;;;;4142643;28;20041;-67
2022/03/25 07:03:18;;;;;;;86.63;48.63;;;11.30;99.90;;;;;;4143694;28;20144;-68
2022/03/25 07:05:19;;;;;;;94.93;52.78;;;11.40;99.90;;;;;;4141840;28;20446;-68
2022/03/25 07:07:26;;;;;;;80.47;48.20;;;11.60;99.90;;;;;;4141942;28;20037;-67
2022/03/25 07:09:27;;;;;;;83.20;48.05;;;11.80;99.90;;;;;;4157174;28;20042;-67
2022/03/25 07:11:28;;;;;;;83.93;49.95;;;12.00;99.90;;;;;;4141325;28;20129;-67
2022/03/25 07:13:30;;;;;;;84.32;50.20;;;12.20;99.90;;;;;;4142631;28;20044;-68
2022/03/25 07:15:30;;;;;;;86.80;50.60;;;12.40;99.90;;;;;;4140391;28;20036;-68
2022/03/25 07:17:31;;;;;;;84.72;50.80;;;12.60;99.90;;;;;;4141357;28;20500;-67
2022/03/25 07:19:32;;;;;;;86.05;49.40;;;12.80;99.80;;;;;;4144348;28;20046;-67
2022/03/25 07:21:32;;;;;;;81.40;47.30;;;12.90;99.90;;;;;;4139228;28;20042;-67
2022/03/25 07:23:33;;;;;;;80.95;48.67;;;13.10;99.90;;;;;;4139969;28;20073;-67
2022/03/25 07:25:33;;;;;;;87.03;50.45;;;13.30;98.60;;;;;;4139667;28;20065;-68
2022/03/25 07:27:34;;;;;;;79.68;48.75;;;13.50;98.70;;;;;;4140886;28;20049;-67
2022/03/25 07:29:35;;;;;;;84.82;49.03;;;13.70;97.80;;;;;;4140839;28;20041;-67
2022/03/25 07:31:35;;;;;;;88.07;51.35;;;13.80;97.00;;;;;;4140139;28;20037;-67
2022/03/25 07:33:36;;;;;;;84.95;50.53;;;14.00;97.30;;;;;;4140726;28;20041;-67
2022/03/25 07:35:37;;;;;;;80.80;49.00;;;14.10;96.90;;;;;;4139143;28;20430;-67
2022/03/25 07:37:38;;;;;;;81.43;49.38;;;14.30;96.90;;;;;;4140176;28;20080;-67
2022/03/25 07:39:39;;;;;;;85.13;50.33;;;14.50;96.10;;;;;;4134961;28;20045;-67
2022/03/25 07:41:39;;;;;;;81.32;49.38;;;14.70;95.30;;;;;;4137946;28;20050;-67
2022/03/25 07:43:40;;;;;;;79.30;48.25;;;14.90;95.20;;;;;;4140746;28;20042;-67
2022/03/25 07:45:41;;;;;;;75.57;46.72;;;15.10;95.00;;;;;;4137683;28;20549;-67
2022/03/25 07:47:43;;;;;;;77.53;47.28;;;15.30;93.90;;;;;;4135212;28;20054;-67
2022/03/25 07:49:44;;;;;;;77.50;45.92;;;15.50;94.20;;;;;;4141207;28;20042;-67
2022/03/25 07:51:44;;;;;;;73.18;46.70;;;15.70;93.90;;;;;;4158102;28;20128;-67
2022/03/25 07:53:45;;;;;;;80.00;49.05;;;15.90;93.00;;;;;;4143760;28;20030;-67
2022/03/25 07:55:50;;;;;;;80.80;48.28;;;16.10;92.40;;;;;;4142444;28;20045;-67
2022/03/25 07:57:51;;;;;;;82.05;48.00;;;16.30;91.50;;;;;;4143296;28;20125;-68
2022/03/25 07:59:51;;;;;;;71.88;45.67;;;16.50;91.60;;;;;;4143605;28;20042;-68
2022/03/25 08:01:52;;;;;;;70.97;44.72;;;16.60;90.30;;;;;;4141246;28;20085;-67
2022/03/25 08:03:53;;;;;;;71.13;45.30;;;16.70;91.40;;;;;;4143611;28;20041;-67
2022/03/25 08:05:55;;;;;;;74.43;47.67;;;16.90;91.10;;;;;;4143111;28;20037;-66
2022/03/25 08:07:55;;;;;;;73.30;46.22;;;16.60;84.50;;;;;;4142809;28;20030;-66
2022/03/25 08:09:56;;;;;;;79.25;46.28;;;16.70;89.20;;;;;;4142633;28;20038;-66
2022/03/25 08:11:57;;;;;;;67.82;44.55;;;16.90;90.30;;;;;;4142364;28;20030;-66
2022/03/25 08:13:57;;;;;;;68.03;44.83;;;17.00;90.60;;;;;;4143465;28;20042;-66
2022/03/25 08:15:58;;;;;;;71.80;44.72;;;17.10;89.40;;;;;;4144214;28;20034;-65
2022/03/25 08:18:10;;;;;;;70.82;44.70;;;17.10;88.40;;;;;;4145537;28;20110;-65
2022/03/25 08:20:11;;;;;;;68.55;43.72;;;17.20;86.80;;;;;;4144929;28;20049;-67
2022/03/25 08:22:12;;;;;;;68.90;44.42;;;17.20;85.50;;;;;;4146798;28;20050;-66
2022/03/25 08:28:52;;;;;;;69.50;44.17;;;16.80;88.40;;;;;;4143734;28;20077;-68
2022/03/25 08:30:53;;;;;;;71.03;44.05;;;16.90;88.40;;;;;;4147902;28;20104;-68
2022/03/25 08:32:53;;;;;;;72.70;46.15;;;16.90;86.90;;;;;;4150709;28;20030;-66
2022/03/25 08:34:54;;;;;;;75.75;46.72;;;16.40;85.40;;;;;;4149239;28;20052;-67
2022/03/25 08:36:54;;;;;;;71.28;43.90;;;16.40;88.60;;;;;;4149908;28;20050;-67
2022/03/25 08:38:55;;;;;;;68.07;43.45;;;16.40;86.00;;;;;;4146829;28;20117;-66
2022/03/25 08:40:56;;;;;;;66.32;42.35;;;16.50;88.30;;;;;;4149390;28;20045;-66
2022/03/25 08:42:57;;;;;;;66.47;40.92;;;16.60;90.40;;;;;;4150420;28;20402;-66
2022/03/25 08:44:57;;;;;;;75.90;44.03;;;16.70;90.90;;;;;;4151235;28;20041;-66
2022/03/25 08:46:58;;;;;;;66.90;42.55;;;16.80;90.90;;;;;;4146784;28;20059;-65
2022/03/25 08:48:59;;;;;;;70.82;41.70;;;16.90;90.70;;;;;;4146511;28;20057;-66
2022/03/25 08:50:59;;;;;;;67.93;42.00;;;17.00;90.00;;;;;;4150447;28;20053;-66
2022/03/25 08:53:00;;;;;;;64.60;40.33;;;17.10;90.20;;;;;;4149490;28;20114;-66
2022/03/25 08:55:01;;;;;;;61.35;39.17;;;17.20;90.50;;;;;;4154411;28;20037;-66
2022/03/25 08:57:02;;;;;;;60.50;37.88;;;17.30;86.50;;;;;;4147658;28;20378;-67
2022/03/25 08:59:03;;;;;;;71.43;42.13;;;17.40;89.70;;;;;;4151584;28;20033;-66
2022/03/25 09:01:03;;;;;;;64.00;38.60;;;17.50;87.70;;;;;;4148940;28;20125;-66
2022/03/25 09:03:05;;;;;;;65.95;39.15;;;17.50;87.70;;;;;;4152170;28;20524;-66
2022/03/25 09:05:06;;;;;;;59.10;39.00;;;17.60;87.40;;;;;;4147572;28;20033;-67
2022/03/25 09:07:07;;;;;;;64.10;38.50;;;17.70;86.80;;;;;;4148004;28;20113;-66
2022/03/25 09:09:07;;;;;;;65.22;40.30;;;17.80;85.50;;;;;;4145648;28;20034;-66
2022/03/25 09:11:09;;;;;;;65.53;40.20;;;17.80;85.30;;;;;;4146477;28;20563;-66
2022/03/25 09:13:11;;;;;;;60.05;38.70;;;17.80;87.20;;;;;;4130042;28;20042;-66
2022/03/25 09:15:13;;;;;;;61.53;37.55;;;17.90;86.80;;;;;;4150066;28;20436;-67
2022/03/25 09:17:14;;;;;;;55.78;35.05;;;17.90;85.20;;;;;;4149429;28;20048;-66
2022/03/25 09:19:15;;;;;;;57.33;35.17;;;18.00;81.90;;;;;;4149509;28;20034;-66
2022/03/25 09:21:16;;;;;;;53.88;33.15;;;18.00;84.10;;;;;;4149992;28;20626;-66
2022/03/25 09:23:17;;;;;;;54.90;34.25;;;18.10;80.80;;;;;;4144497;28;20104;-66
2022/03/25 09:25:17;;;;;;;59.40;36.08;;;18.20;84.40;;;;;;4146146;28;20041;-66
2022/03/25 09:27:18;;;;;;;59.10;36.10;;;18.30;82.60;;;;;;4141001;28;20578;-66
2022/03/25 09:29:19;;;;;;;54.42;34.50;;;18.30;83.50;;;;;;4144104;28;20061;-66
2022/03/25 09:31:19;;;;;;;53.53;35.17;;;18.30;84.40;;;;;;4142816;28;20038;-66
2022/03/25 09:33:20;;;;;;;59.72;36.63;;;18.40;84.00;;;;;;4141801;28;20054;-66
2022/03/25 09:35:21;;;;;;;57.13;36.13;;;18.50;84.70;;;;;;4143234;28;20064;-66
2022/03/25 09:37:22;;;;;;;53.35;33.97;;;18.50;84.40;;;;;;4149335;28;20124;-66
2022/03/25 09:39:22;;;;;;;57.38;35.80;;;18.60;83.00;;;;;;4143845;28;20037;-66
2022/03/25 09:41:23;;;;;;;58.35;35.22;;;18.70;84.30;;;;;;4142116;28;20137;-66
2022/03/25 09:43:24;;;;;;;53.30;34.42;;;18.70;83.10;;;;;;4142260;28;20125;-66
2022/03/25 09:45:27;;;;;;;51.80;33.17;;;18.80;83.00;;;;;;4141455;28;20042;-66
2022/03/25 09:47:30;;;;;;;54.00;32.63;;;18.90;82.40;;;;;;4143757;28;20041;-66
2022/03/25 09:49:30;;;;;;;45.72;30.05;;;18.90;81.50;;;;;;4141627;28;20041;-66
2022/03/25 09:51:31;;;;;;;51.53;31.98;;;18.90;76.60;;;;;;4140666;28;20140;-66
2022/03/25 09:53:32;;;;;;;51.03;32.28;;;18.90;77.40;;;;;;4140730;28;20088;-66
2022/03/25 09:55:45;;;;;;;49.72;32.80;;;19.00;81.10;;;;;;4141684;28;20030;-66
2022/03/25 09:57:46;;;;;;;58.85;33.72;;;19.00;79.80;;;;;;4157106;28;20041;-67
2022/03/25 09:59:47;;;;;;;54.85;34.55;;;19.00;77.50;;;;;;4142945;28;20048;-66
2022/03/25 10:01:48;;;;;;;57.25;36.67;;;19.00;81.20;;;;;;4143585;28;20041;-66
2022/03/25 10:03:48;;;;;;;59.00;36.40;;;19.00;80.00;;;;;;4142975;28;20038;-66
2022/03/25 10:05:57;;;;;;;58.75;37.92;;;19.00;80.80;;;;;;4141058;28;20033;-66
2022/03/25 10:07:59;;;;;;;60.13;35.38;;;18.80;75.70;;;;;;4139380;28;20724;-66
2022/03/25 10:10:14;;;;;;;55.28;33.78;;;18.90;79.90;;;;;;4141222;28;20073;-66
2022/03/25 10:12:25;;;;;;;56.78;37.35;;;18.90;79.30;;;;;;4124123;28;20405;-67
2022/03/25 10:14:29;;;;;;;63.10;36.80;;;19.00;79.30;;;;;;4141790;28;20552;-66
2022/03/25 10:16:31;;;;;;;66.00;40.00;;;18.60;73.40;;;;;;4138825;28;20046;-66
2022/03/25 10:18:31;;;;;;;60.03;36.47;;;18.10;73.80;;;;;;4141696;28;20425;-66
2022/03/25 10:20:40;;;;;;;65.70;38.42;;;18.30;76.60;;;;;;4139314;28;20386;-67